createdAt,value
2018-03-08T00:00:09.420Z,6.70
2018-03-08T00:02:37.606Z,6.60
2018-03-08T00:05:05.667Z,6.60
2018-03-08T00:07:33.836Z,6.50
2018-03-08T00:10:01.912Z,6.40
2018-03-08T00:12:29.882Z,6.40
2018-03-08T00:14:57.953Z,6.30
2018-03-08T00:17:26.338Z,6.30
2018-03-08T00:19:54.407Z,6.20
2018-03-08T00:22:22.583Z,6.20
2018-03-08T00:24:50.859Z,6.20
2018-03-08T00:27:18.923Z,6.10
2018-03-08T00:29:46.989Z,6.10
2018-03-08T00:32:15.174Z,6.10
2018-03-08T00:34:43.554Z,6.10
2018-03-08T00:37:11.726Z,6.00
2018-03-08T00:39:39.785Z,6.00
2018-03-08T00:42:07.806Z,6.00
2018-03-08T00:44:36.042Z,6.00
2018-03-08T00:47:04.206Z,5.90
2018-03-08T00:49:32.388Z,5.90
2018-03-08T00:52:00.451Z,5.90
2018-03-08T00:54:28.636Z,5.90
2018-03-08T00:56:56.806Z,5.80
2018-03-08T00:59:25.483Z,5.80
2018-03-08T01:01:53.556Z,5.80
2018-03-08T01:04:21.522Z,5.80
2018-03-08T01:06:50.410Z,5.70
2018-03-08T01:09:18.585Z,5.70
2018-03-08T01:11:46.768Z,5.70
2018-03-08T01:14:14.829Z,5.70
2018-03-08T01:16:43.013Z,5.70
2018-03-08T01:19:11.181Z,5.70
2018-03-08T01:21:39.360Z,5.70
2018-03-08T01:24:07.535Z,5.70
2018-03-08T01:26:35.707Z,5.70
2018-03-08T01:29:03.769Z,5.60
2018-03-08T01:31:31.735Z,5.60
2018-03-08T01:33:59.805Z,5.60
2018-03-08T01:36:27.989Z,5.60
2018-03-08T01:38:56.014Z,5.60
2018-03-08T01:41:24.127Z,5.50
2018-03-08T01:43:52.196Z,5.50
2018-03-08T01:46:20.377Z,5.40
2018-03-08T01:48:49.155Z,5.40
2018-03-08T01:51:17.126Z,5.40
2018-03-08T01:53:45.297Z,5.40
2018-03-08T01:56:13.991Z,5.30
2018-03-08T01:58:42.156Z,5.30
2018-03-08T02:01:10.442Z,5.30
2018-03-08T02:03:38.388Z,5.30
2018-03-08T02:06:06.368Z,5.30
2018-03-08T02:08:34.442Z,5.30
2018-03-08T02:11:02.624Z,5.30
2018-03-08T02:13:30.901Z,5.30
2018-03-08T02:15:58.962Z,5.20
2018-03-08T02:18:27.452Z,5.20
2018-03-08T02:20:55.626Z,5.20
2018-03-08T02:23:23.687Z,5.20
2018-03-08T02:25:51.755Z,5.20
2018-03-08T02:28:19.825Z,5.20
2018-03-08T02:30:47.983Z,5.20
2018-03-08T02:33:16.070Z,5.20
2018-03-08T02:35:44.243Z,5.20
2018-03-08T02:38:12.418Z,5.20
2018-03-08T02:40:40.593Z,5.20
2018-03-08T02:43:08.882Z,5.20
2018-03-08T02:45:37.155Z,5.10
2018-03-08T02:48:05.321Z,5.10
2018-03-08T02:50:33.503Z,5.10
2018-03-08T02:53:01.666Z,5.10
2018-03-08T02:55:29.850Z,5.10
2018-03-08T02:57:58.015Z,5.10
2018-03-08T03:00:26.187Z,5.00
2018-03-08T03:02:54.363Z,5.00
2018-03-08T03:05:22.532Z,5.00
2018-03-08T03:07:50.709Z,5.00
2018-03-08T03:10:18.992Z,5.00
2018-03-08T03:12:47.668Z,5.00
2018-03-08T03:15:15.838Z,5.00
2018-03-08T03:17:44.014Z,5.00
2018-03-08T03:20:14.747Z,4.90
2018-03-08T03:22:43.545Z,4.90
2018-03-08T03:25:11.479Z,4.80
2018-03-08T03:27:39.681Z,4.90
2018-03-08T03:30:07.887Z,4.80
2018-03-08T03:32:36.028Z,4.80
2018-03-08T03:35:04.917Z,4.80
2018-03-08T03:37:32.987Z,4.70
2018-03-08T03:40:01.057Z,4.80
2018-03-08T03:42:29.780Z,4.70
2018-03-08T03:44:58.738Z,4.70
2018-03-08T03:47:26.906Z,4.70
2018-03-08T03:49:55.083Z,4.70
2018-03-08T03:52:23.103Z,4.70
2018-03-08T03:54:51.336Z,4.70
2018-03-08T03:57:19.498Z,4.70
2018-03-08T03:59:47.676Z,4.70
2018-03-08T04:02:15.844Z,4.70
2018-03-08T04:04:44.125Z,4.70
2018-03-08T04:07:12.416Z,4.70
2018-03-08T04:09:41.803Z,4.70
2018-03-08T04:12:09.981Z,4.60
2018-03-08T04:14:38.261Z,4.70
2018-03-08T04:17:06.424Z,4.60
2018-03-08T04:19:34.542Z,4.60
2018-03-08T04:22:02.666Z,4.60
2018-03-08T04:24:30.839Z,4.60
2018-03-08T04:26:59.012Z,4.60
2018-03-08T04:29:27.189Z,4.60
2018-03-08T04:31:55.479Z,4.60
2018-03-08T04:34:24.467Z,4.50
2018-03-08T04:36:52.742Z,4.50
2018-03-08T04:39:20.907Z,4.50
2018-03-08T04:41:49.078Z,4.50
2018-03-08T04:44:17.972Z,4.50
2018-03-08T04:46:46.038Z,4.40
2018-03-08T04:49:14.326Z,4.50
2018-03-08T04:51:43.102Z,4.50
2018-03-08T04:54:11.279Z,4.50
2018-03-08T04:56:39.461Z,4.50
2018-03-08T04:59:07.737Z,4.50
2018-03-08T05:01:36.720Z,4.40
2018-03-08T05:04:04.895Z,4.40
2018-03-08T05:06:33.067Z,4.40
2018-03-08T05:09:03.801Z,4.40
2018-03-08T05:11:31.976Z,4.40
2018-03-08T05:14:00.260Z,4.40
2018-03-08T05:16:28.421Z,4.30
2018-03-08T05:18:56.597Z,4.30
2018-03-08T05:21:24.882Z,4.30
2018-03-08T05:23:53.048Z,4.30
2018-03-08T05:26:21.734Z,4.30
2018-03-08T05:28:49.906Z,4.20
2018-03-08T05:31:18.189Z,4.20
2018-03-08T05:33:46.466Z,4.20
2018-03-08T05:36:14.632Z,4.20
2018-03-08T05:38:42.804Z,4.20
2018-03-08T05:41:10.975Z,4.20
2018-03-08T05:43:39.150Z,4.20
2018-03-08T05:46:07.324Z,4.20
2018-03-08T05:48:35.674Z,4.20
2018-03-08T05:51:03.879Z,4.20
2018-03-08T05:53:32.877Z,4.10
2018-03-08T05:56:01.039Z,4.10
2018-03-08T05:58:29.216Z,4.10
2018-03-08T06:00:57.999Z,4.20
2018-03-08T06:03:26.178Z,4.20
2018-03-08T06:05:54.462Z,4.20
2018-03-08T06:08:23.135Z,4.20
2018-03-08T06:10:51.313Z,4.30
2018-03-08T06:13:19.481Z,4.30
2018-03-08T06:15:47.660Z,4.30
2018-03-08T06:18:15.942Z,4.30
2018-03-08T06:20:44.109Z,4.30
2018-03-08T06:23:12.278Z,4.40
2018-03-08T06:25:40.565Z,4.40
2018-03-08T06:28:08.842Z,4.40
2018-03-08T06:30:37.121Z,4.50
2018-03-08T06:33:05.281Z,4.50
2018-03-08T06:35:34.887Z,4.60
2018-03-08T06:38:03.071Z,4.60
2018-03-08T06:40:31.347Z,4.60
2018-03-08T06:42:59.406Z,4.70
2018-03-08T06:45:27.586Z,4.70
2018-03-08T06:47:55.868Z,4.80
2018-03-08T06:50:24.148Z,4.90
2018-03-08T06:52:52.419Z,5.00
2018-03-08T06:55:20.587Z,5.00
2018-03-08T06:57:48.754Z,5.10
2018-03-08T07:00:18.361Z,5.30
2018-03-08T07:02:46.536Z,5.30
2018-03-08T07:05:14.925Z,5.40
2018-03-08T07:07:43.201Z,5.50
2018-03-08T07:10:11.362Z,5.50
2018-03-08T07:12:39.536Z,5.70
2018-03-08T07:15:09.143Z,5.90
2018-03-08T07:17:37.321Z,5.90
2018-03-08T07:20:05.707Z,6.00
2018-03-08T07:22:33.982Z,6.10
2018-03-08T07:25:02.261Z,6.20
2018-03-08T07:27:30.423Z,6.30
2018-03-08T07:29:58.599Z,6.50
2018-03-08T07:32:26.771Z,6.60
2018-03-08T07:34:55.056Z,6.70
2018-03-08T07:37:23.330Z,6.80
2018-03-08T07:39:51.497Z,6.90
2018-03-08T07:42:19.592Z,7.00
2018-03-08T07:44:48.458Z,7.30
2018-03-08T07:47:17.349Z,7.40
2018-03-08T07:49:45.517Z,7.30
2018-03-08T07:52:13.805Z,7.50
2018-03-08T07:54:42.080Z,7.60
2018-03-08T07:57:10.359Z,7.70
2018-03-08T07:59:38.518Z,7.80
2018-03-08T08:02:06.704Z,7.90
2018-03-08T08:04:46.334Z,8.00
2018-03-08T08:07:26.287Z,8.20
2018-03-08T08:09:54.572Z,8.30
2018-03-08T08:12:23.564Z,8.50
2018-03-08T08:14:51.839Z,8.50
2018-03-08T08:17:20.718Z,8.80
2018-03-08T08:19:48.788Z,8.80
2018-03-08T08:22:16.963Z,9.00
2018-03-08T08:24:45.136Z,9.10
2018-03-08T08:27:13.310Z,9.20
2018-03-08T08:29:42.203Z,9.50
2018-03-08T08:32:10.989Z,9.50
2018-03-08T08:34:39.165Z,9.60
2018-03-08T08:37:07.346Z,9.70
2018-03-08T08:39:35.514Z,9.90
2018-03-08T08:42:03.682Z,10.00
2018-03-08T08:44:31.859Z,10.10
2018-03-08T08:47:00.860Z,10.20
2018-03-08T08:49:29.026Z,10.40
2018-03-08T08:51:57.926Z,10.50
2018-03-08T08:54:27.431Z,10.70
2018-03-08T08:56:56.046Z,10.60
2018-03-08T08:59:24.997Z,10.90
2018-03-08T09:01:53.889Z,11.00
2018-03-08T09:04:22.058Z,10.90
2018-03-08T09:06:50.342Z,11.00
2018-03-08T09:09:18.510Z,11.10
2018-03-08T09:11:48.116Z,11.20
2018-03-08T09:14:16.698Z,11.20
2018-03-08T09:16:44.982Z,11.30
2018-03-08T09:19:13.144Z,11.40
2018-03-08T09:21:41.433Z,11.40
2018-03-08T09:24:10.311Z,11.60
2018-03-08T09:26:38.484Z,11.60
2018-03-08T09:29:07.270Z,11.70
2018-03-08T09:31:35.450Z,11.80
2018-03-08T09:34:03.627Z,12.00
2018-03-08T09:36:31.795Z,12.10
2018-03-08T09:39:00.080Z,12.20
2018-03-08T09:41:28.242Z,12.40
2018-03-08T09:43:56.529Z,12.50
2018-03-08T09:46:24.805Z,12.60
2018-03-08T09:48:52.966Z,12.80
2018-03-08T09:51:23.721Z,13.00
2018-03-08T09:53:52.745Z,13.40
2018-03-08T09:56:21.623Z,13.40
2018-03-08T09:58:50.372Z,13.60
2018-03-08T10:01:19.374Z,13.80
2018-03-08T10:03:48.572Z,14.20
2018-03-08T10:06:17.558Z,14.40
2018-03-08T10:08:45.624Z,14.40
2018-03-08T10:11:14.519Z,14.60
2018-03-08T10:13:42.688Z,14.80
2018-03-08T10:16:11.374Z,15.10
2018-03-08T10:18:39.546Z,15.40
2018-03-08T10:21:07.719Z,15.70
2018-03-08T10:23:35.797Z,16.10
2018-03-08T10:26:05.630Z,16.70
2018-03-08T10:28:34.607Z,16.90
2018-03-08T10:31:02.769Z,16.90
2018-03-08T10:33:31.661Z,17.20
2018-03-08T10:35:59.837Z,17.20
2018-03-08T10:38:28.121Z,17.30
2018-03-08T10:40:56.442Z,17.40
2018-03-08T10:43:24.672Z,17.60
2018-03-08T10:45:52.840Z,17.90
2018-03-08T10:48:21.012Z,18.20
2018-03-08T10:50:49.187Z,18.50
2018-03-08T10:53:18.075Z,18.80
2018-03-08T10:55:47.075Z,18.90
2018-03-08T10:58:15.236Z,18.90
2018-03-08T11:00:47.322Z,19.20
2018-03-08T11:03:16.293Z,19.60
2018-03-08T11:05:47.135Z,19.80
2018-03-08T11:08:16.844Z,20.00
2018-03-08T11:10:45.013Z,20.00
2018-03-08T11:13:13.083Z,20.30
2018-03-08T11:15:41.372Z,20.70
2018-03-08T11:18:09.583Z,21.10
2018-03-08T11:20:38.428Z,21.50
2018-03-08T11:23:06.598Z,22.00
2018-03-08T11:25:34.770Z,22.40
2018-03-08T11:28:03.526Z,23.10
2018-03-08T11:30:31.845Z,23.10
2018-03-08T11:33:00.006Z,23.30
2018-03-08T11:35:28.192Z,23.50
2018-03-08T11:37:58.205Z,24.10
2018-03-08T11:40:26.484Z,24.00
2018-03-08T11:42:55.354Z,24.40
2018-03-08T11:45:22.993Z,24.70
2018-03-08T11:47:51.103Z,24.80
2018-03-08T11:50:19.269Z,25.00
2018-03-08T11:52:47.446Z,25.30
2018-03-08T11:55:15.620Z,25.50
2018-03-08T11:57:44.303Z,25.70
2018-03-08T12:00:12.502Z,26.00
2018-03-08T12:02:41.365Z,26.40
2018-03-08T12:05:09.543Z,26.30
2018-03-08T12:07:37.827Z,26.50
2018-03-08T12:10:05.989Z,26.70
2018-03-08T12:12:34.059Z,26.80
2018-03-08T12:15:02.131Z,26.90
2018-03-08T12:17:30.304Z,27.00
2018-03-08T12:19:58.990Z,27.10
2018-03-08T12:22:27.042Z,27.00
2018-03-08T12:24:55.131Z,26.90
2018-03-08T12:27:23.419Z,26.90
2018-03-08T12:29:51.581Z,27.10
2018-03-08T12:32:20.790Z,27.30
2018-03-08T12:34:49.066Z,27.60
2018-03-08T12:37:17.231Z,27.70
2018-03-08T12:39:45.515Z,27.80
2018-03-08T12:42:13.677Z,27.90
2018-03-08T12:44:41.964Z,27.90
2018-03-08T12:47:10.132Z,28.00
2018-03-08T12:49:38.199Z,28.20
2018-03-08T12:52:06.375Z,28.40
2018-03-08T12:54:35.272Z,28.60
2018-03-08T12:57:03.434Z,28.70
2018-03-08T12:59:31.721Z,28.80
2018-03-08T13:01:59.884Z,28.80
2018-03-08T13:04:28.785Z,29.00
2018-03-08T13:06:57.049Z,29.10
2018-03-08T13:09:25.223Z,29.40
2018-03-08T13:11:53.510Z,29.40
2018-03-08T13:14:21.680Z,29.40
2018-03-08T13:16:50.191Z,29.50
2018-03-08T13:19:21.669Z,29.00
2018-03-08T13:21:49.781Z,29.00
2018-03-08T13:24:17.955Z,28.70
2018-03-08T13:26:46.129Z,28.30
2018-03-08T13:29:14.917Z,27.90
2018-03-08T13:31:42.985Z,27.40
2018-03-08T13:34:11.269Z,26.90
2018-03-08T13:36:39.547Z,26.40
2018-03-08T13:39:07.707Z,25.90
2018-03-08T13:41:36.507Z,25.10
2018-03-08T13:44:05.502Z,23.70
2018-03-08T13:46:33.666Z,23.60
2018-03-08T13:49:13.397Z,23.40
2018-03-08T13:51:42.200Z,23.20
2018-03-08T13:54:10.484Z,23.00
2018-03-08T13:56:38.644Z,22.80
2018-03-08T13:59:06.720Z,22.60
2018-03-08T14:01:35.105Z,22.40
2018-03-08T14:04:03.271Z,22.40
2018-03-08T14:06:31.561Z,22.50
2018-03-08T14:09:00.193Z,22.60
2018-03-08T14:11:28.412Z,22.80
2018-03-08T14:13:56.679Z,22.90
2018-03-08T14:16:24.852Z,22.70
2018-03-08T14:18:52.922Z,22.40
2018-03-08T14:21:21.099Z,22.00
2018-03-08T14:23:49.281Z,21.60
2018-03-08T14:26:17.442Z,21.20
2018-03-08T14:28:45.513Z,20.90
2018-03-08T14:31:13.800Z,20.70
2018-03-08T14:33:41.963Z,20.60
2018-03-08T14:36:10.251Z,20.60
2018-03-08T14:38:39.031Z,20.50
2018-03-08T14:41:07.200Z,20.50
2018-03-08T14:43:35.378Z,20.50
2018-03-08T14:46:04.162Z,20.30
2018-03-08T14:48:32.339Z,20.20
2018-03-08T14:51:00.621Z,19.90
2018-03-08T14:53:29.505Z,19.80
2018-03-08T14:55:57.678Z,19.80
2018-03-08T14:58:25.964Z,19.90
2018-03-08T15:00:54.844Z,19.90
2018-03-08T15:03:23.016Z,19.90
2018-03-08T15:05:51.193Z,19.90
2018-03-08T15:08:19.360Z,20.10
2018-03-08T15:10:47.647Z,20.30
2018-03-08T15:13:15.812Z,20.60
2018-03-08T15:15:43.780Z,21.00
2018-03-08T15:18:11.955Z,21.20
2018-03-08T15:20:40.238Z,21.40
2018-03-08T15:23:08.407Z,21.60
2018-03-08T15:25:36.579Z,21.70
2018-03-08T15:28:07.422Z,21.80
2018-03-08T15:30:35.583Z,22.00
2018-03-08T15:33:03.762Z,22.10
2018-03-08T15:35:31.936Z,22.00
2018-03-08T15:38:00.110Z,21.90
2018-03-08T15:40:28.391Z,21.60
2018-03-08T15:42:56.553Z,21.30
2018-03-08T15:45:24.842Z,20.90
2018-03-08T15:47:53.003Z,20.40
2018-03-08T15:50:21.179Z,20.10
2018-03-08T15:52:49.350Z,19.70
2018-03-08T15:55:18.957Z,18.90
2018-03-08T15:57:48.564Z,18.50
2018-03-08T16:00:18.278Z,18.20
2018-03-08T16:02:46.446Z,18.20
2018-03-08T16:05:15.132Z,17.90
2018-03-08T16:08:08.201Z,17.60
2018-03-08T16:10:37.184Z,17.40
2018-03-08T16:13:06.071Z,16.90
2018-03-08T16:15:34.246Z,16.90
2018-03-08T16:18:02.418Z,16.80
2018-03-08T16:20:32.344Z,16.40
2018-03-08T16:23:01.226Z,16.30
2018-03-08T16:25:30.230Z,16.10
2018-03-08T16:27:58.393Z,16.10
2018-03-08T16:30:26.565Z,16.00
2018-03-08T16:32:56.387Z,15.80
2018-03-08T16:35:25.378Z,15.70
2018-03-08T16:37:54.263Z,15.60
2018-03-08T16:40:22.434Z,15.60
2018-03-08T16:42:51.117Z,15.50
2018-03-08T16:45:19.294Z,15.40
2018-03-08T16:47:47.578Z,15.30
2018-03-08T16:50:16.457Z,15.10
2018-03-08T16:52:44.630Z,15.00
2018-03-08T16:55:12.804Z,14.90
2018-03-08T16:57:40.878Z,14.90
2018-03-08T17:00:09.048Z,14.70
2018-03-08T17:02:38.770Z,14.60
2018-03-08T17:05:06.943Z,14.50
2018-03-08T17:07:35.955Z,14.40
2018-03-08T17:10:04.917Z,14.30
2018-03-08T17:12:34.739Z,14.20
2018-03-08T17:15:04.667Z,14.20
2018-03-08T17:17:33.533Z,14.10
2018-03-08T17:20:01.807Z,14.00
2018-03-08T17:22:29.990Z,14.00
2018-03-08T17:24:58.876Z,13.80
2018-03-08T17:27:26.942Z,13.80
2018-03-08T17:29:55.747Z,13.80
2018-03-08T17:32:26.430Z,13.70
2018-03-08T17:34:55.167Z,13.50
2018-03-08T17:37:24.154Z,13.40
2018-03-08T17:39:52.318Z,13.30
2018-03-08T17:42:20.451Z,13.30
2018-03-08T17:44:49.379Z,13.00
2018-03-08T17:47:17.667Z,13.00
2018-03-08T17:49:45.943Z,12.90
2018-03-08T17:52:14.104Z,12.80
2018-03-08T17:54:42.278Z,12.70
2018-03-08T17:57:10.565Z,12.60
2018-03-08T17:59:39.046Z,12.50
2018-03-08T18:02:07.333Z,12.50
2018-03-08T18:04:36.310Z,12.40
2018-03-08T18:07:04.855Z,12.30
2018-03-08T18:09:33.059Z,12.30
2018-03-08T18:12:01.232Z,12.20
2018-03-08T18:14:29.521Z,12.20
2018-03-08T18:16:57.797Z,12.10
2018-03-08T18:19:25.964Z,12.10
2018-03-08T18:21:54.132Z,12.00
2018-03-08T18:24:22.305Z,12.00
2018-03-08T18:26:50.592Z,11.90
2018-03-08T18:29:19.381Z,11.90
2018-03-08T18:31:47.657Z,11.80
2018-03-08T18:34:16.037Z,11.70
2018-03-08T18:36:44.817Z,11.60
2018-03-08T18:39:13.097Z,11.60
2018-03-08T18:41:41.979Z,11.50
2018-03-08T18:44:10.155Z,11.50
2018-03-08T18:46:38.323Z,11.50
2018-03-08T18:49:06.499Z,11.40
2018-03-08T18:51:34.568Z,11.40
2018-03-08T18:54:02.754Z,11.30
2018-03-08T18:56:30.915Z,11.30
2018-03-08T18:58:59.154Z,11.30
2018-03-08T19:01:27.581Z,11.30
2018-03-08T19:03:55.640Z,11.30
2018-03-08T19:06:24.837Z,11.30
2018-03-08T19:08:53.220Z,11.20
2018-03-08T19:11:22.207Z,11.10
2018-03-08T19:13:51.118Z,11.10
2018-03-08T19:16:19.994Z,11.00
2018-03-08T19:18:48.169Z,11.00
2018-03-08T19:21:17.053Z,10.90
2018-03-08T19:23:45.348Z,10.90
2018-03-08T19:26:14.326Z,10.80
2018-03-08T19:28:42.497Z,10.80
2018-03-08T19:31:10.673Z,10.80
2018-03-08T19:33:38.844Z,10.80
2018-03-08T19:36:07.014Z,10.70
2018-03-08T19:38:36.327Z,10.70
2018-03-08T19:41:04.779Z,10.60
2018-03-08T19:43:32.867Z,10.60
2018-03-08T19:46:01.156Z,10.60
2018-03-08T19:48:29.431Z,10.60
2018-03-08T19:50:57.598Z,10.60
2018-03-08T19:53:25.967Z,10.60
2018-03-08T19:55:54.452Z,10.60
2018-03-08T19:58:22.739Z,10.70
2018-03-08T20:00:53.678Z,10.60
2018-03-08T20:03:21.838Z,10.60
2018-03-08T20:05:50.126Z,10.60
2018-03-08T20:08:19.118Z,10.60
2018-03-08T20:10:47.196Z,10.50
2018-03-08T20:13:16.210Z,10.50
2018-03-08T20:15:44.353Z,10.50
2018-03-08T20:18:12.517Z,10.50
2018-03-08T20:20:40.691Z,10.40
2018-03-08T20:23:08.981Z,10.40
2018-03-08T20:25:38.334Z,10.30
2018-03-08T20:28:06.440Z,10.30
2018-03-08T20:30:34.730Z,10.20
2018-03-08T20:33:02.889Z,10.20
2018-03-08T20:35:31.063Z,10.10
2018-03-08T20:37:59.036Z,10.00
2018-03-08T20:40:27.319Z,9.90
2018-03-08T20:42:56.200Z,9.80
2018-03-08T20:45:24.377Z,9.80
2018-03-08T20:47:52.659Z,9.80
2018-03-08T20:50:20.934Z,9.70
2018-03-08T20:52:49.098Z,9.70
2018-03-08T20:55:17.384Z,9.70
2018-03-08T20:57:48.109Z,9.70
2018-03-08T21:00:16.279Z,9.60
2018-03-08T21:02:44.567Z,9.60
2018-03-08T21:05:13.450Z,9.60
2018-03-08T21:07:41.731Z,9.60
2018-03-08T21:10:09.900Z,9.60
2018-03-08T21:12:38.070Z,9.60
2018-03-08T21:15:06.961Z,9.50
2018-03-08T21:17:37.906Z,9.50
2018-03-08T21:20:07.723Z,9.40
2018-03-08T21:22:37.519Z,9.40
2018-03-08T21:25:05.698Z,9.40
2018-03-08T21:27:33.985Z,9.40
2018-03-08T21:30:03.481Z,9.30
2018-03-08T21:32:31.865Z,9.30
2018-03-08T21:35:00.857Z,9.20
2018-03-08T21:37:29.736Z,9.20
2018-03-08T21:39:57.909Z,9.20
2018-03-08T21:42:26.094Z,9.20
2018-03-08T21:44:54.975Z,9.10
2018-03-08T21:47:23.146Z,9.10
2018-03-08T21:49:51.320Z,9.10
2018-03-08T21:52:19.493Z,9.00
2018-03-08T21:54:48.384Z,9.00
2018-03-08T21:57:16.454Z,9.00
2018-03-08T21:59:44.742Z,8.90
2018-03-08T22:02:13.623Z,8.80
2018-03-08T22:04:41.907Z,8.80
2018-03-08T22:07:11.003Z,8.70
2018-03-08T22:09:39.887Z,8.70
2018-03-08T22:12:08.126Z,8.60
2018-03-08T22:14:36.445Z,8.60
2018-03-08T22:17:04.610Z,8.60
2018-03-08T22:19:32.779Z,8.50
2018-03-08T22:22:00.958Z,8.50
2018-03-08T22:24:29.100Z,8.40
2018-03-08T22:26:57.203Z,8.40
2018-03-08T22:29:25.402Z,8.40
2018-03-08T22:31:54.376Z,8.30
2018-03-08T22:34:23.151Z,8.30
2018-03-08T22:36:51.439Z,8.30
2018-03-08T22:39:20.325Z,8.30
2018-03-08T22:41:48.492Z,8.20
2018-03-08T22:44:16.664Z,8.30
2018-03-08T22:46:44.841Z,8.20
2018-03-08T22:49:13.017Z,8.30
2018-03-08T22:51:41.819Z,8.30
2018-03-08T22:54:10.697Z,8.20
2018-03-08T22:56:38.865Z,8.20
2018-03-08T22:59:07.755Z,8.20
2018-03-08T23:04:52.434Z,8.20
2018-03-08T23:07:21.439Z,8.10
2018-03-08T23:09:49.603Z,8.10
2018-03-08T23:12:17.774Z,8.10
2018-03-08T23:14:45.946Z,8.10
2018-03-08T23:17:13.919Z,8.10
2018-03-08T23:19:42.094Z,8.00
2018-03-08T23:22:10.377Z,8.00
2018-03-08T23:24:39.882Z,7.90
2018-03-08T23:27:08.048Z,7.90
2018-03-08T23:29:37.047Z,7.90
2018-03-08T23:32:05.210Z,7.90
2018-03-08T23:34:33.280Z,7.90
2018-03-08T23:37:01.356Z,7.80
2018-03-08T23:39:29.527Z,7.80
2018-03-08T23:41:57.600Z,7.70
2018-03-08T23:44:25.769Z,7.70
2018-03-08T23:46:54.978Z,7.70
2018-03-08T23:49:23.045Z,7.70
2018-03-08T23:51:51.830Z,7.60
2018-03-08T23:54:20.116Z,7.70
2018-03-08T23:56:48.275Z,7.70
2018-03-08T23:59:16.870Z,7.60
